Main page
METAR-TAF:

METAR-TAF

Airports :

Qurghonteppa, Tajikistan

Qurghonteppa International Airport

latitude: 37-51-44N, longitude: 068-51-46E, elevation: 449 m

Current weather observation

The report was made 10 minutes ago, at 21:30 UTC
Calm wind
Temperature 35°C
Humidity 87%
Pressure 1013 hPa
Visibility: 6000 m
Scattered clouds at a height of 16000 ft

METAR: UTDT 232130Z 00000MPS 6000 SCT160 03/01 Q1013 35////// RMK QFE720/0961

Time: 02:40 (21:40 UTC)

Forecast

The report was made 40 minutes ago, at 21:00 UTC
Forecast valid from 23 at 22 UTC to 24 at 07 UTC
Wind 4 kt from variable directions
Visibility: 3500 m
Few clouds at a height of 6000 ft
Scattered clouds at a height of 12000 ft
mist
Temporary
from 23 at 22 UTC to 24 at 07 UTC
Visibility: 1000 m
mist

TAF: UTDT 232100Z 2322/2407 VRB02MPS 3500 BR FEW060 SCT120 TEMPO 2322/2407 1000 BR

Weather observations and forecasts of more than 4000 airports (METAR and TAF reports).

The available stations are represented by yellow and red dots on the map.

Hover mouse over dot to see the name of the station.

Then click to see weather observations and forecasts.

To change the map : click on the green buttons with a black cross to zoom in, on the green button with a dash to zoom out, or on the green arrows for adjacent maps.


METAR-TAF: